Terminal Aerodrome Forecast
Issued by NWS

Home | Current Version | Previous Version | Text Only | Print | Product List | Glossary On
Versions: 1 2 3 4 5 6 7 8 9 10 11 12 13 14 15 16 17 18 19 20 21
675
FTAK31 PAJN 242323
TAFAPG
TAF
PAPG 242323Z 2500/2524 05005KT P6SM SCT025
     FM250400 04005KT P6SM BKN040
     FM250900 04005KT 1SM BR OVC007
     FM252100 04005KT 4SM BR SCT007 OVC015
      AMD LTD TO CLD VIS AND WIND 2506/2515=

USA.gov is the U.S. government's official web portal to all federal, state and local government web resources and services.